sensor_id;sensor_type;location;lat;lon;timestamp;temperature;humidity
79760;DHT22;70512;42.122;24.732;2024-02-14T00:01:13;9.40;89.70
79760;DHT22;70512;42.122;24.732;2024-02-14T00:03:41;9.50;89.50
79760;DHT22;70512;42.122;24.732;2024-02-14T00:06:08;9.50;89.20
79760;DHT22;70512;42.122;24.732;2024-02-14T00:08:38;9.50;88.40
79760;DHT22;70512;42.122;24.732;2024-02-14T00:11:05;9.40;89.00
79760;DHT22;70512;42.122;24.732;2024-02-14T00:13:33;9.50;89.00
79760;DHT22;70512;42.122;24.732;2024-02-14T00:16:01;9.50;88.70
79760;DHT22;70512;42.122;24.732;2024-02-14T00:18:29;9.40;88.60
79760;DHT22;70512;42.122;24.732;2024-02-14T00:20:57;9.40;88.60
79760;DHT22;70512;42.122;24.732;2024-02-14T00:23:24;9.40;89.00
79760;DHT22;70512;42.122;24.732;2024-02-14T00:25:52;9.50;88.70
79760;DHT22;70512;42.122;24.732;2024-02-14T00:28:20;9.40;87.70
79760;DHT22;70512;42.122;24.732;2024-02-14T00:30:49;9.50;87.00
79760;DHT22;70512;42.122;24.732;2024-02-14T00:33:17;9.50;88.00
79760;DHT22;70512;42.122;24.732;2024-02-14T00:35:46;9.50;86.50
79760;DHT22;70512;42.122;24.732;2024-02-14T00:38:14;9.60;86.30
79760;DHT22;70512;42.122;24.732;2024-02-14T00:40:41;9.60;86.00
79760;DHT22;70512;42.122;24.732;2024-02-14T00:43:09;9.60;85.80
79760;DHT22;70512;42.122;24.732;2024-02-14T00:45:37;9.60;86.10
79760;DHT22;70512;42.122;24.732;2024-02-14T00:48:05;9.60;86.10
79760;DHT22;70512;42.122;24.732;2024-02-14T00:50:33;9.60;86.50
79760;DHT22;70512;42.122;24.732;2024-02-14T00:53:01;9.50;86.60
79760;DHT22;70512;42.122;24.732;2024-02-14T00:55:29;9.50;86.80
79760;DHT22;70512;42.122;24.732;2024-02-14T00:57:56;9.50;87.40
79760;DHT22;70512;42.122;24.732;2024-02-14T01:00:24;9.40;88.00
79760;DHT22;70512;42.122;24.732;2024-02-14T01:02:52;9.40;87.60
79760;DHT22;70512;42.122;24.732;2024-02-14T01:05:20;9.40;88.90
79760;DHT22;70512;42.122;24.732;2024-02-14T01:07:47;9.30;88.10
79760;DHT22;70512;42.122;24.732;2024-02-14T01:10:15;9.30;88.60
79760;DHT22;70512;42.122;24.732;2024-02-14T01:12:43;9.30;89.00
79760;DHT22;70512;42.122;24.732;2024-02-14T01:15:10;9.30;88.80
79760;DHT22;70512;42.122;24.732;2024-02-14T01:17:38;9.30;88.00
79760;DHT22;70512;42.122;24.732;2024-02-14T01:20:07;9.30;88.30
79760;DHT22;70512;42.122;24.732;2024-02-14T01:22:35;9.30;88.40
79760;DHT22;70512;42.122;24.732;2024-02-14T01:25:04;9.40;88.50
79760;DHT22;70512;42.122;24.732;2024-02-14T01:27:32;9.30;87.80
79760;DHT22;70512;42.122;24.732;2024-02-14T01:30:00;9.40;87.70
79760;DHT22;70512;42.122;24.732;2024-02-14T01:32:28;9.40;87.50
79760;DHT22;70512;42.122;24.732;2024-02-14T01:34:56;9.50;87.40
79760;DHT22;70512;42.122;24.732;2024-02-14T01:37:24;9.40;86.80
79760;DHT22;70512;42.122;24.732;2024-02-14T01:39:51;9.40;86.80
79760;DHT22;70512;42.122;24.732;2024-02-14T01:42:19;9.40;86.50
79760;DHT22;70512;42.122;24.732;2024-02-14T01:44:47;9.30;87.30
79760;DHT22;70512;42.122;24.732;2024-02-14T01:47:14;9.30;87.20
79760;DHT22;70512;42.122;24.732;2024-02-14T01:49:42;9.20;87.30
79760;DHT22;70512;42.122;24.732;2024-02-14T01:52:11;9.20;87.70
79760;DHT22;70512;42.122;24.732;2024-02-14T01:54:38;9.20;87.20
79760;DHT22;70512;42.122;24.732;2024-02-14T01:57:08;9.20;87.20
79760;DHT22;70512;42.122;24.732;2024-02-14T01:59:38;9.20;87.30
79760;DHT22;70512;42.122;24.732;2024-02-14T02:02:06;9.20;86.50
79760;DHT22;70512;42.122;24.732;2024-02-14T02:04:36;9.30;86.30
79760;DHT22;70512;42.122;24.732;2024-02-14T02:07:04;9.40;85.80
79760;DHT22;70512;42.122;24.732;2024-02-14T02:09:32;9.40;85.40
79760;DHT22;70512;42.122;24.732;2024-02-14T02:12:00;9.40;85.00
79760;DHT22;70512;42.122;24.732;2024-02-14T02:14:28;9.40;84.60
79760;DHT22;70512;42.122;24.732;2024-02-14T02:16:56;9.40;84.20
79760;DHT22;70512;42.122;24.732;2024-02-14T02:19:24;9.40;83.80
79760;DHT22;70512;42.122;24.732;2024-02-14T02:21:51;9.40;84.00
79760;DHT22;70512;42.122;24.732;2024-02-14T02:24:19;9.40;83.90
79760;DHT22;70512;42.122;24.732;2024-02-14T02:26:47;9.30;83.60
79760;DHT22;70512;42.122;24.732;2024-02-14T02:29:15;9.30;84.10
79760;DHT22;70512;42.122;24.732;2024-02-14T02:31:43;9.30;84.10
79760;DHT22;70512;42.122;24.732;2024-02-14T02:34:10;9.40;83.90
79760;DHT22;70512;42.122;24.732;2024-02-14T02:36:38;9.40;83.60
79760;DHT22;70512;42.122;24.732;2024-02-14T02:39:06;9.30;84.60
79760;DHT22;70512;42.122;24.732;2024-02-14T02:41:34;9.40;85.50
79760;DHT22;70512;42.122;24.732;2024-02-14T02:44:01;9.40;85.80
79760;DHT22;70512;42.122;24.732;2024-02-14T02:46:31;9.40;84.30
79760;DHT22;70512;42.122;24.732;2024-02-14T02:48:58;9.30;85.70
79760;DHT22;70512;42.122;24.732;2024-02-14T02:51:26;9.30;85.50
79760;DHT22;70512;42.122;24.732;2024-02-14T02:53:54;9.30;86.10
79760;DHT22;70512;42.122;24.732;2024-02-14T02:56:22;9.30;85.20
79760;DHT22;70512;42.122;24.732;2024-02-14T02:58:52;9.30;84.20
79760;DHT22;70512;42.122;24.732;2024-02-14T03:01:20;9.20;84.40
79760;DHT22;70512;42.122;24.732;2024-02-14T03:03:49;9.30;84.30
79760;DHT22;70512;42.122;24.732;2024-02-14T03:06:17;9.30;84.00
79760;DHT22;70512;42.122;24.732;2024-02-14T03:08:44;9.30;83.50
79760;DHT22;70512;42.122;24.732;2024-02-14T03:11:14;9.30;84.30
79760;DHT22;70512;42.122;24.732;2024-02-14T03:13:42;9.30;83.80
79760;DHT22;70512;42.122;24.732;2024-02-14T03:16:10;9.40;84.90
79760;DHT22;70512;42.122;24.732;2024-02-14T03:18:38;9.40;84.30
79760;DHT22;70512;42.122;24.732;2024-02-14T03:21:06;9.30;83.80
79760;DHT22;70512;42.122;24.732;2024-02-14T03:23:34;9.20;83.10
79760;DHT22;70512;42.122;24.732;2024-02-14T03:26:01;9.20;85.60
79760;DHT22;70512;42.122;24.732;2024-02-14T03:28:31;9.20;85.60
79760;DHT22;70512;42.122;24.732;2024-02-14T03:30:58;9.10;84.60
79760;DHT22;70512;42.122;24.732;2024-02-14T03:33:26;9.10;84.90
79760;DHT22;70512;42.122;24.732;2024-02-14T03:35:55;9.10;85.40
79760;DHT22;70512;42.122;24.732;2024-02-14T03:38:26;9.10;84.80
79760;DHT22;70512;42.122;24.732;2024-02-14T03:40:54;9.10;86.30
79760;DHT22;70512;42.122;24.732;2024-02-14T03:43:22;9.10;86.60
79760;DHT22;70512;42.122;24.732;2024-02-14T03:45:50;9.10;85.90
79760;DHT22;70512;42.122;24.732;2024-02-14T03:48:22;9.00;85.50
79760;DHT22;70512;42.122;24.732;2024-02-14T03:50:50;9.00;85.00
79760;DHT22;70512;42.122;24.732;2024-02-14T03:53:18;9.00;86.80
79760;DHT22;70512;42.122;24.732;2024-02-14T03:55:45;9.00;86.50
79760;DHT22;70512;42.122;24.732;2024-02-14T03:58:13;8.90;86.20
79760;DHT22;70512;42.122;24.732;2024-02-14T04:00:42;9.00;86.90
79760;DHT22;70512;42.122;24.732;2024-02-14T04:03:14;9.00;86.30
79760;DHT22;70512;42.122;24.732;2024-02-14T04:05:41;8.90;86.20
79760;DHT22;70512;42.122;24.732;2024-02-14T04:08:09;8.90;86.30
79760;DHT22;70512;42.122;24.732;2024-02-14T04:10:37;9.00;86.70
79760;DHT22;70512;42.122;24.732;2024-02-14T04:13:05;9.00;85.80
79760;DHT22;70512;42.122;24.732;2024-02-14T04:15:33;9.00;86.00
79760;DHT22;70512;42.122;24.732;2024-02-14T04:18:00;9.00;86.00
79760;DHT22;70512;42.122;24.732;2024-02-14T04:20:30;9.00;85.70
79760;DHT22;70512;42.122;24.732;2024-02-14T04:22:57;8.90;85.70
79760;DHT22;70512;42.122;24.732;2024-02-14T04:25:25;9.00;86.40
79760;DHT22;70512;42.122;24.732;2024-02-14T04:27:53;8.90;85.70
79760;DHT22;70512;42.122;24.732;2024-02-14T04:30:21;9.00;86.90
79760;DHT22;70512;42.122;24.732;2024-02-14T04:32:48;8.90;85.60
79760;DHT22;70512;42.122;24.732;2024-02-14T04:35:16;8.90;86.00
79760;DHT22;70512;42.122;24.732;2024-02-14T04:37:44;9.00;85.20
79760;DHT22;70512;42.122;24.732;2024-02-14T04:40:13;9.00;84.30
79760;DHT22;70512;42.122;24.732;2024-02-14T04:42:41;9.00;84.10
79760;DHT22;70512;42.122;24.732;2024-02-14T04:45:09;9.10;84.10
79760;DHT22;70512;42.122;24.732;2024-02-14T04:47:36;9.20;82.60
79760;DHT22;70512;42.122;24.732;2024-02-14T04:50:04;9.20;83.20
79760;DHT22;70512;42.122;24.732;2024-02-14T04:52:32;9.20;82.90
79760;DHT22;70512;42.122;24.732;2024-02-14T04:55:00;9.30;83.40
79760;DHT22;70512;42.122;24.732;2024-02-14T04:57:27;9.40;82.80
79760;DHT22;70512;42.122;24.732;2024-02-14T04:59:55;9.40;81.80
79760;DHT22;70512;42.122;24.732;2024-02-14T05:02:23;9.40;81.90
79760;DHT22;70512;42.122;24.732;2024-02-14T05:04:51;9.40;82.60
79760;DHT22;70512;42.122;24.732;2024-02-14T05:07:18;9.40;81.80
79760;DHT22;70512;42.122;24.732;2024-02-14T05:09:46;9.40;81.00
79760;DHT22;70512;42.122;24.732;2024-02-14T05:12:15;9.30;81.50
79760;DHT22;70512;42.122;24.732;2024-02-14T05:14:43;9.40;81.90
79760;DHT22;70512;42.122;24.732;2024-02-14T05:17:11;9.40;81.60
79760;DHT22;70512;42.122;24.732;2024-02-14T05:19:38;9.50;82.30
79760;DHT22;70512;42.122;24.732;2024-02-14T05:22:08;9.60;81.90
79760;DHT22;70512;42.122;24.732;2024-02-14T05:24:35;9.60;81.40
79760;DHT22;70512;42.122;24.732;2024-02-14T05:27:05;9.60;80.40
79760;DHT22;70512;42.122;24.732;2024-02-14T05:29:32;9.60;80.30
79760;DHT22;70512;42.122;24.732;2024-02-14T05:32:00;9.60;80.80
79760;DHT22;70512;42.122;24.732;2024-02-14T05:34:27;9.50;79.60
79760;DHT22;70512;42.122;24.732;2024-02-14T05:36:55;9.50;79.90
79760;DHT22;70512;42.122;24.732;2024-02-14T05:39:23;9.50;80.50
79760;DHT22;70512;42.122;24.732;2024-02-14T05:41:51;9.50;79.70
79760;DHT22;70512;42.122;24.732;2024-02-14T05:44:20;9.50;79.90
79760;DHT22;70512;42.122;24.732;2024-02-14T05:46:49;9.50;79.70
79760;DHT22;70512;42.122;24.732;2024-02-14T05:49:17;9.50;79.80
79760;DHT22;70512;42.122;24.732;2024-02-14T05:51:44;9.60;79.80
79760;DHT22;70512;42.122;24.732;2024-02-14T05:54:12;9.60;78.80
79760;DHT22;70512;42.122;24.732;2024-02-14T05:56:40;9.70;79.30
79760;DHT22;70512;42.122;24.732;2024-02-14T05:59:07;9.70;78.50
79760;DHT22;70512;42.122;24.732;2024-02-14T06:01:36;9.90;78.40
79760;DHT22;70512;42.122;24.732;2024-02-14T06:04:04;9.90;77.50
79760;DHT22;70512;42.122;24.732;2024-02-14T06:06:31;10.00;77.70
79760;DHT22;70512;42.122;24.732;2024-02-14T06:08:59;10.00;76.60
79760;DHT22;70512;42.122;24.732;2024-02-14T06:11:27;10.10;76.70
79760;DHT22;70512;42.122;24.732;2024-02-14T06:13:54;10.10;76.50
79760;DHT22;70512;42.122;24.732;2024-02-14T06:16:22;10.10;76.30
79760;DHT22;70512;42.122;24.732;2024-02-14T06:18:50;10.20;77.40
79760;DHT22;70512;42.122;24.732;2024-02-14T06:21:17;10.30;76.60
79760;DHT22;70512;42.122;24.732;2024-02-14T06:23:46;10.40;75.40
79760;DHT22;70512;42.122;24.732;2024-02-14T06:26:13;10.30;75.20
79760;DHT22;70512;42.122;24.732;2024-02-14T06:28:41;10.20;75.00
79760;DHT22;70512;42.122;24.732;2024-02-14T06:31:09;10.20;75.20
79760;DHT22;70512;42.122;24.732;2024-02-14T06:33:36;10.20;74.70
79760;DHT22;70512;42.122;24.732;2024-02-14T06:36:04;10.30;75.30
79760;DHT22;70512;42.122;24.732;2024-02-14T06:38:32;10.40;76.40
79760;DHT22;70512;42.122;24.732;2024-02-14T06:40:59;10.40;75.00
79760;DHT22;70512;42.122;24.732;2024-02-14T06:43:27;10.30;74.60
79760;DHT22;70512;42.122;24.732;2024-02-14T06:45:56;10.20;74.70
79760;DHT22;70512;42.122;24.732;2024-02-14T06:48:23;10.30;75.40
79760;DHT22;70512;42.122;24.732;2024-02-14T06:50:51;10.30;74.60
79760;DHT22;70512;42.122;24.732;2024-02-14T06:53:19;10.20;74.60
79760;DHT22;70512;42.122;24.732;2024-02-14T06:55:47;10.30;74.40
79760;DHT22;70512;42.122;24.732;2024-02-14T06:58:14;10.40;74.80
79760;DHT22;70512;42.122;24.732;2024-02-14T07:00:42;10.40;74.30
79760;DHT22;70512;42.122;24.732;2024-02-14T07:03:11;10.50;74.70
79760;DHT22;70512;42.122;24.732;2024-02-14T07:05:38;10.50;74.40
79760;DHT22;70512;42.122;24.732;2024-02-14T07:08:06;10.50;74.10
79760;DHT22;70512;42.122;24.732;2024-02-14T07:10:34;10.40;74.10
79760;DHT22;70512;42.122;24.732;2024-02-14T07:13:01;10.40;75.00
79760;DHT22;70512;42.122;24.732;2024-02-14T07:15:29;10.50;74.20
79760;DHT22;70512;42.122;24.732;2024-02-14T07:17:57;10.50;73.40
79760;DHT22;70512;42.122;24.732;2024-02-14T07:20:25;10.60;74.60
79760;DHT22;70512;42.122;24.732;2024-02-14T07:22:53;10.60;73.70
79760;DHT22;70512;42.122;24.732;2024-02-14T07:25:22;10.60;73.20
79760;DHT22;70512;42.122;24.732;2024-02-14T07:27:50;10.60;72.80
79760;DHT22;70512;42.122;24.732;2024-02-14T07:30:18;10.60;72.90
79760;DHT22;70512;42.122;24.732;2024-02-14T07:32:46;10.60;73.80
79760;DHT22;70512;42.122;24.732;2024-02-14T07:35:13;10.70;72.40
79760;DHT22;70512;42.122;24.732;2024-02-14T07:37:41;10.60;73.10
79760;DHT22;70512;42.122;24.732;2024-02-14T07:40:10;10.80;73.40
79760;DHT22;70512;42.122;24.732;2024-02-14T07:42:38;10.70;72.70
79760;DHT22;70512;42.122;24.732;2024-02-14T07:45:06;10.60;72.50
79760;DHT22;70512;42.122;24.732;2024-02-14T07:47:33;10.60;73.00
79760;DHT22;70512;42.122;24.732;2024-02-14T07:50:01;10.60;72.30
79760;DHT22;70512;42.122;24.732;2024-02-14T07:52:29;10.50;73.20
79760;DHT22;70512;42.122;24.732;2024-02-14T07:54:58;10.50;72.50
79760;DHT22;70512;42.122;24.732;2024-02-14T07:57:25;10.50;72.80
79760;DHT22;70512;42.122;24.732;2024-02-14T07:59:54;10.60;72.90
79760;DHT22;70512;42.122;24.732;2024-02-14T08:02:21;10.70;71.90
79760;DHT22;70512;42.122;24.732;2024-02-14T08:04:49;10.70;72.30
79760;DHT22;70512;42.122;24.732;2024-02-14T08:07:17;10.70;72.00
79760;DHT22;70512;42.122;24.732;2024-02-14T08:09:45;10.80;71.10
79760;DHT22;70512;42.122;24.732;2024-02-14T08:12:12;10.80;70.50
79760;DHT22;70512;42.122;24.732;2024-02-14T08:14:40;10.70;69.80
79760;DHT22;70512;42.122;24.732;2024-02-14T08:17:08;10.80;69.80
79760;DHT22;70512;42.122;24.732;2024-02-14T08:19:35;10.70;69.80
79760;DHT22;70512;42.122;24.732;2024-02-14T08:22:03;10.70;70.00
79760;DHT22;70512;42.122;24.732;2024-02-14T08:24:32;10.50;70.60
79760;DHT22;70512;42.122;24.732;2024-02-14T08:27:00;10.50;70.90
79760;DHT22;70512;42.122;24.732;2024-02-14T08:29:27;10.60;70.90
79760;DHT22;70512;42.122;24.732;2024-02-14T08:31:55;10.60;70.60
79760;DHT22;70512;42.122;24.732;2024-02-14T08:34:23;10.60;70.50
79760;DHT22;70512;42.122;24.732;2024-02-14T08:36:51;10.60;70.00
79760;DHT22;70512;42.122;24.732;2024-02-14T08:39:18;10.50;70.70
79760;DHT22;70512;42.122;24.732;2024-02-14T08:41:46;10.40;70.90
79760;DHT22;70512;42.122;24.732;2024-02-14T08:44:14;10.40;71.50
79760;DHT22;70512;42.122;24.732;2024-02-14T08:46:42;10.60;71.60
79760;DHT22;70512;42.122;24.732;2024-02-14T08:49:11;10.70;70.80
79760;DHT22;70512;42.122;24.732;2024-02-14T08:51:39;10.70;70.30
79760;DHT22;70512;42.122;24.732;2024-02-14T08:54:07;10.80;70.40
79760;DHT22;70512;42.122;24.732;2024-02-14T08:56:34;10.80;70.90
79760;DHT22;70512;42.122;24.732;2024-02-14T08:59:04;10.80;69.70
79760;DHT22;70512;42.122;24.732;2024-02-14T09:01:33;10.80;70.20
79760;DHT22;70512;42.122;24.732;2024-02-14T09:04:02;10.80;69.90
79760;DHT22;70512;42.122;24.732;2024-02-14T09:06:30;10.90;69.90
79760;DHT22;70512;42.122;24.732;2024-02-14T09:09:02;11.00;70.00
79760;DHT22;70512;42.122;24.732;2024-02-14T09:11:30;11.00;69.80
79760;DHT22;70512;42.122;24.732;2024-02-14T09:13:58;11.00;70.20
79760;DHT22;70512;42.122;24.732;2024-02-14T09:16:27;10.80;70.60
79760;DHT22;70512;42.122;24.732;2024-02-14T09:18:55;10.90;70.80
79760;DHT22;70512;42.122;24.732;2024-02-14T09:21:23;10.90;71.80
79760;DHT22;70512;42.122;24.732;2024-02-14T09:23:51;10.90;71.70
79760;DHT22;70512;42.122;24.732;2024-02-14T09:26:18;10.90;72.20
79760;DHT22;70512;42.122;24.732;2024-02-14T09:28:46;10.80;72.50
79760;DHT22;70512;42.122;24.732;2024-02-14T09:31:19;10.60;72.00
79760;DHT22;70512;42.122;24.732;2024-02-14T09:33:48;10.60;72.50
79760;DHT22;70512;42.122;24.732;2024-02-14T09:36:16;10.40;73.90
79760;DHT22;70512;42.122;24.732;2024-02-14T09:38:44;10.40;73.40
79760;DHT22;70512;42.122;24.732;2024-02-14T09:41:25;10.30;74.80
79760;DHT22;70512;42.122;24.732;2024-02-14T09:43:52;10.50;77.30
79760;DHT22;70512;42.122;24.732;2024-02-14T09:46:24;10.50;75.10
79760;DHT22;70512;42.122;24.732;2024-02-14T09:48:56;10.50;76.00
79760;DHT22;70512;42.122;24.732;2024-02-14T09:51:26;10.40;76.60
79760;DHT22;70512;42.122;24.732;2024-02-14T09:53:54;10.40;77.80
79760;DHT22;70512;42.122;24.732;2024-02-14T09:56:22;10.50;78.50
79760;DHT22;70512;42.122;24.732;2024-02-14T09:58:50;10.60;77.70
79760;DHT22;70512;42.122;24.732;2024-02-14T10:01:19;10.60;76.90
79760;DHT22;70512;42.122;24.732;2024-02-14T10:03:49;10.70;77.10
79760;DHT22;70512;42.122;24.732;2024-02-14T10:06:18;10.70;76.10
79760;DHT22;70512;42.122;24.732;2024-02-14T10:08:50;11.00;76.40
79760;DHT22;70512;42.122;24.732;2024-02-14T10:11:18;11.10;74.90
79760;DHT22;70512;42.122;24.732;2024-02-14T10:13:48;11.30;75.10
79760;DHT22;70512;42.122;24.732;2024-02-14T10:16:17;11.40;74.60
79760;DHT22;70512;42.122;24.732;2024-02-14T10:18:48;11.40;75.10
79760;DHT22;70512;42.122;24.732;2024-02-14T10:21:17;11.30;72.80
79760;DHT22;70512;42.122;24.732;2024-02-14T10:23:46;11.40;72.30
79760;DHT22;70512;42.122;24.732;2024-02-14T10:26:14;11.50;72.60
79760;DHT22;70512;42.122;24.732;2024-02-14T10:28:43;11.50;70.50
79760;DHT22;70512;42.122;24.732;2024-02-14T10:31:11;11.60;71.70
79760;DHT22;70512;42.122;24.732;2024-02-14T10:33:40;11.60;69.50
79760;DHT22;70512;42.122;24.732;2024-02-14T10:36:13;11.50;70.30
79760;DHT22;70512;42.122;24.732;2024-02-14T10:38:41;11.30;69.10
79760;DHT22;70512;42.122;24.732;2024-02-14T10:41:13;11.40;70.70
79760;DHT22;70512;42.122;24.732;2024-02-14T10:43:42;11.40;69.00
79760;DHT22;70512;42.122;24.732;2024-02-14T10:46:23;11.80;69.50
79760;DHT22;70512;42.122;24.732;2024-02-14T10:48:58;12.40;68.00
79760;DHT22;70512;42.122;24.732;2024-02-14T10:51:28;12.70;65.40
79760;DHT22;70512;42.122;24.732;2024-02-14T10:53:58;12.60;63.00
79760;DHT22;70512;42.122;24.732;2024-02-14T10:56:29;12.40;63.60
79760;DHT22;70512;42.122;24.732;2024-02-14T10:58:57;12.50;63.90
79760;DHT22;70512;42.122;24.732;2024-02-14T11:01:28;12.90;63.10
79760;DHT22;70512;42.122;24.732;2024-02-14T11:04:01;13.20;64.00
79760;DHT22;70512;42.122;24.732;2024-02-14T11:06:31;13.90;60.70
79760;DHT22;70512;42.122;24.732;2024-02-14T11:09:04;14.30;58.60
79760;DHT22;70512;42.122;24.732;2024-02-14T11:11:38;14.40;56.90
79760;DHT22;70512;42.122;24.732;2024-02-14T11:14:07;14.70;57.00
79760;DHT22;70512;42.122;24.732;2024-02-14T11:16:37;14.90;56.00
79760;DHT22;70512;42.122;24.732;2024-02-14T11:19:09;15.50;54.40
79760;DHT22;70512;42.122;24.732;2024-02-14T11:21:42;15.50;53.70
79760;DHT22;70512;42.122;24.732;2024-02-14T11:24:13;15.20;54.30
79760;DHT22;70512;42.122;24.732;2024-02-14T11:26:51;15.80;53.50
79760;DHT22;70512;42.122;24.732;2024-02-14T11:29:19;16.00;51.50
79760;DHT22;70512;42.122;24.732;2024-02-14T11:31:48;15.90;51.90
79760;DHT22;70512;42.122;24.732;2024-02-14T11:34:17;15.90;51.30
79760;DHT22;70512;42.122;24.732;2024-02-14T11:36:45;16.10;50.90
79760;DHT22;70512;42.122;24.732;2024-02-14T11:39:13;16.60;49.60
79760;DHT22;70512;42.122;24.732;2024-02-14T11:41:40;16.00;50.70
79760;DHT22;70512;42.122;24.732;2024-02-14T11:44:11;15.50;51.90
79760;DHT22;70512;42.122;24.732;2024-02-14T11:46:39;16.20;51.80
79760;DHT22;70512;42.122;24.732;2024-02-14T11:49:08;15.90;50.80
79760;DHT22;70512;42.122;24.732;2024-02-14T11:51:36;16.20;51.30
79760;DHT22;70512;42.122;24.732;2024-02-14T11:54:05;16.10;49.80
79760;DHT22;70512;42.122;24.732;2024-02-14T11:56:35;15.70;51.50
79760;DHT22;70512;42.122;24.732;2024-02-14T11:59:04;15.80;51.30
79760;DHT22;70512;42.122;24.732;2024-02-14T12:01:33;16.00;50.90
79760;DHT22;70512;42.122;24.732;2024-02-14T12:04:07;15.80;50.90
79760;DHT22;70512;42.122;24.732;2024-02-14T12:06:39;16.10;51.10
79760;DHT22;70512;42.122;24.732;2024-02-14T12:09:11;16.90;47.40
79760;DHT22;70512;42.122;24.732;2024-02-14T12:11:41;17.10;47.20
79760;DHT22;70512;42.122;24.732;2024-02-14T12:14:12;17.10;46.10
79760;DHT22;70512;42.122;24.732;2024-02-14T12:16:41;18.10;44.10
79760;DHT22;70512;42.122;24.732;2024-02-14T12:19:16;18.40;42.60
79760;DHT22;70512;42.122;24.732;2024-02-14T12:21:45;17.90;44.10
79760;DHT22;70512;42.122;24.732;2024-02-14T12:24:15;17.00;46.00
79760;DHT22;70512;42.122;24.732;2024-02-14T12:26:43;16.60;46.50
79760;DHT22;70512;42.122;24.732;2024-02-14T12:29:13;17.60;44.90
79760;DHT22;70512;42.122;24.732;2024-02-14T12:31:41;18.10;43.10
79760;DHT22;70512;42.122;24.732;2024-02-14T12:34:11;16.80;45.10
79760;DHT22;70512;42.122;24.732;2024-02-14T12:36:39;15.50;49.50
79760;DHT22;70512;42.122;24.732;2024-02-14T12:39:07;15.00;51.90
79760;DHT22;70512;42.122;24.732;2024-02-14T12:41:36;14.60;52.60
79760;DHT22;70512;42.122;24.732;2024-02-14T12:44:05;14.90;52.70
79760;DHT22;70512;42.122;24.732;2024-02-14T12:46:33;15.30;51.40
79760;DHT22;70512;42.122;24.732;2024-02-14T12:49:03;16.40;49.00
79760;DHT22;70512;42.122;24.732;2024-02-14T12:51:30;18.80;45.00
79760;DHT22;70512;42.122;24.732;2024-02-14T12:53:58;19.20;43.50
79760;DHT22;70512;42.122;24.732;2024-02-14T12:56:26;19.20;43.80
79760;DHT22;70512;42.122;24.732;2024-02-14T12:58:53;18.40;45.20
79760;DHT22;70512;42.122;24.732;2024-02-14T13:01:21;20.40;41.70
79760;DHT22;70512;42.122;24.732;2024-02-14T13:03:49;22.90;35.60
79760;DHT22;70512;42.122;24.732;2024-02-14T13:06:16;23.90;30.50
79760;DHT22;70512;42.122;24.732;2024-02-14T13:08:44;21.80;33.30
79760;DHT22;70512;42.122;24.732;2024-02-14T13:11:12;20.00;36.30
79760;DHT22;70512;42.122;24.732;2024-02-14T13:13:41;19.20;39.80
79760;DHT22;70512;42.122;24.732;2024-02-14T13:16:09;19.20;39.50
79760;DHT22;70512;42.122;24.732;2024-02-14T13:18:37;18.30;40.60
79760;DHT22;70512;42.122;24.732;2024-02-14T13:21:06;16.60;44.50
79760;DHT22;70512;42.122;24.732;2024-02-14T13:23:33;14.80;47.80
79760;DHT22;70512;42.122;24.732;2024-02-14T13:26:01;13.80;51.80
79760;DHT22;70512;42.122;24.732;2024-02-14T13:28:30;13.30;54.00
79760;DHT22;70512;42.122;24.732;2024-02-14T13:30:58;13.20;55.00
79760;DHT22;70512;42.122;24.732;2024-02-14T13:33:25;12.80;55.90
79760;DHT22;70512;42.122;24.732;2024-02-14T13:35:53;12.70;56.40
79760;DHT22;70512;42.122;24.732;2024-02-14T13:38:21;12.40;57.40
79760;DHT22;70512;42.122;24.732;2024-02-14T13:40:49;12.10;57.90
79760;DHT22;70512;42.122;24.732;2024-02-14T13:43:16;12.20;58.90
79760;DHT22;70512;42.122;24.732;2024-02-14T13:45:45;12.40;58.60
79760;DHT22;70512;42.122;24.732;2024-02-14T13:48:15;12.50;58.40
79760;DHT22;70512;42.122;24.732;2024-02-14T13:50:42;12.50;57.60
79760;DHT22;70512;42.122;24.732;2024-02-14T13:53:10;12.30;58.20
79760;DHT22;70512;42.122;24.732;2024-02-14T13:55:38;12.00;58.80
79760;DHT22;70512;42.122;24.732;2024-02-14T13:58:06;11.90;58.80
79760;DHT22;70512;42.122;24.732;2024-02-14T14:00:35;12.00;59.30
79760;DHT22;70512;42.122;24.732;2024-02-14T14:03:03;12.20;58.50
79760;DHT22;70512;42.122;24.732;2024-02-14T14:05:31;11.90;58.40
79760;DHT22;70512;42.122;24.732;2024-02-14T14:07:59;11.80;58.40
79760;DHT22;70512;42.122;24.732;2024-02-14T14:10:27;11.80;58.70
79760;DHT22;70512;42.122;24.732;2024-02-14T14:12:55;11.70;59.30
79760;DHT22;70512;42.122;24.732;2024-02-14T14:15:23;11.90;59.10
79760;DHT22;70512;42.122;24.732;2024-02-14T14:17:52;12.10;59.20
79760;DHT22;70512;42.122;24.732;2024-02-14T14:20:20;11.90;58.50
79760;DHT22;70512;42.122;24.732;2024-02-14T14:22:48;11.80;59.20
79760;DHT22;70512;42.122;24.732;2024-02-14T14:25:15;11.70;59.80
79760;DHT22;70512;42.122;24.732;2024-02-14T14:27:44;11.70;59.20
79760;DHT22;70512;42.122;24.732;2024-02-14T14:30:12;11.70;59.60
79760;DHT22;70512;42.122;24.732;2024-02-14T14:32:40;11.60;59.80
79760;DHT22;70512;42.122;24.732;2024-02-14T14:35:08;11.50;60.60
79760;DHT22;70512;42.122;24.732;2024-02-14T14:37:39;11.50;61.30
79760;DHT22;70512;42.122;24.732;2024-02-14T14:40:07;11.40;61.10
79760;DHT22;70512;42.122;24.732;2024-02-14T14:42:37;11.40;61.50
79760;DHT22;70512;42.122;24.732;2024-02-14T14:45:05;11.40;61.30
79760;DHT22;70512;42.122;24.732;2024-02-14T14:47:33;11.20;61.60
79760;DHT22;70512;42.122;24.732;2024-02-14T14:50:02;11.00;62.00
79760;DHT22;70512;42.122;24.732;2024-02-14T14:52:30;11.00;62.70
79760;DHT22;70512;42.122;24.732;2024-02-14T14:54:58;10.90;62.80
79760;DHT22;70512;42.122;24.732;2024-02-14T14:57:25;10.90;62.80
79760;DHT22;70512;42.122;24.732;2024-02-14T14:59:56;10.90;63.30
79760;DHT22;70512;42.122;24.732;2024-02-14T15:02:24;10.90;62.90
79760;DHT22;70512;42.122;24.732;2024-02-14T15:04:52;10.80;63.80
79760;DHT22;70512;42.122;24.732;2024-02-14T15:07:20;10.60;63.80
79760;DHT22;70512;42.122;24.732;2024-02-14T15:09:47;10.60;64.30
79760;DHT22;70512;42.122;24.732;2024-02-14T15:12:15;10.40;64.40
79760;DHT22;70512;42.122;24.732;2024-02-14T15:14:43;10.50;65.10
79760;DHT22;70512;42.122;24.732;2024-02-14T15:17:10;10.40;64.60
79760;DHT22;70512;42.122;24.732;2024-02-14T15:19:38;10.40;65.30
79760;DHT22;70512;42.122;24.732;2024-02-14T15:22:06;10.50;64.90
79760;DHT22;70512;42.122;24.732;2024-02-14T15:24:34;10.50;64.30
79760;DHT22;70512;42.122;24.732;2024-02-14T15:27:03;10.60;64.10
79760;DHT22;70512;42.122;24.732;2024-02-14T15:29:32;10.50;64.80